< < Back
Terminal Aerodrome Forecast


Current Version              Previous Versions:   1  2  3  4  5  6  7  8  9  

Terminal Aerodrome Forecast

705
FTUS42 KGSP 291450 AAB
TAFGSP
TAF AMD
KGSP 291450Z 2915/3012 02008KT P6SM -SHRA SCT025 OVC050
     FM291800 03011G18KT P6SM VCSH OVC040
     FM292300 02010KT P6SM VCSH BKN050
     FM300500 35005KT P6SM SCT060 BKN150=

Latest METAR

973
SAUS70 KWBC 292300 RRE
MTRGSP
METAR KGSP 292253Z 36007KT 10SM CLR 23/14 A3003 RMK AO2 SLP159
T02330139


USA.gov is the U.S. government's official web portal to all federal, state and local government web resources and services.